Time;durP1;ratioP1;P1;durP2;ratioP2;P2;SDS_P1;SDS_P2;PMS_P1;PMS_P2;Temp;Humidity;BMP_temperature;BMP_pressure;BME280_temperature;BME280_humidity;BME280_pressure;Samples;Min_cycle;Max_cycle;Signal;HPM_P1;HPM_P2
2022/06/24 00:00:54;;;;;;;34.10;24.00;;;;;;;;;;5029036;28;20133;-68
2022/06/24 00:03:20;;;;;;;29.85;21.60;;;;;;;;;;5034976;28;20523;-67
2022/06/24 00:05:49;;;;;;;29.85;22.50;;;;;;;;;;5031771;28;20554;-67
2022/06/24 00:08:15;;;;;;;32.10;24.67;;;;;;;;;;5028821;28;20033;-67
2022/06/24 00:10:43;;;;;;;31.60;25.63;;;;;;;;;;5027280;28;20060;-68
2022/06/24 00:13:09;;;;;;;28.58;24.58;;;;;;;;;;5029582;28;20060;-67
2022/06/24 00:15:36;;;;;;;28.42;23.63;;;;;;;;;;5029268;28;20037;-70
2022/06/24 00:18:12;;;;;;;27.02;23.50;;;;;;;;;;5033517;28;20021;-70
2022/06/24 00:20:56;;;;;;;26.58;21.85;;;;;;;;;;5022797;28;20440;-69
2022/06/24 00:23:23;;;;;;;24.25;21.70;;;;;;;;;;5036586;28;20068;-70
2022/06/24 00:25:49;;;;;;;25.98;21.17;;;;;;;;;;5021928;28;20025;-70
2022/06/24 00:28:15;;;;;;;26.38;21.35;;;;;;;;;;5034060;28;20033;-70
2022/06/24 00:30:51;;;;;;;27.33;21.73;;;;;;;;;;5026879;28;20057;-71
2022/06/24 00:33:21;;;;;;;24.75;20.67;;;;;;;;;;5033248;28;20037;-70
2022/06/24 00:35:59;;;;;;;27.50;19.95;;;;;;;;;;5026063;28;20084;-70
2022/06/24 00:38:29;;;;;;;22.92;19.48;;;;;;;;;;5025535;28;20033;-70
2022/06/24 00:41:04;;;;;;;25.33;19.48;;;;;;;;;;5030763;28;20041;-71
2022/06/24 00:43:30;;;;;;;24.98;18.77;;;;;;;;;;5037236;28;20050;-71
2022/06/24 00:45:59;;;;;;;26.00;18.33;;;;;;;;;;5020533;28;20120;-71
2022/06/24 00:48:28;;;;;;;24.73;17.85;;;;;;;;;;5030670;28;20052;-70
2022/06/24 00:50:54;;;;;;;26.02;17.40;;;;;;;;;;5032715;28;20105;-71
2022/06/24 00:53:20;;;;;;;24.13;16.50;;;;;;;;;;5033138;28;20040;-71
2022/06/24 00:55:47;;;;;;;26.65;16.85;;;;;;;;;;5024670;28;20040;-71
2022/06/24 00:58:14;;;;;;;23.27;16.55;;;;;;;;;;5021246;28;20017;-71
2022/06/24 01:00:41;;;;;;;22.27;17.40;;;;;;;;;;5023702;28;20076;-71
2022/06/24 01:03:08;;;;;;;25.42;18.33;;;;;;;;;;5036518;28;20255;-71
2022/06/24 01:05:34;;;;;;;26.42;20.02;;;;;;;;;;5024191;28;20033;-71
2022/06/24 01:08:07;;;;;;;23.65;19.23;;;;;;;;;;5024036;28;20495;-71
2022/06/24 01:10:33;;;;;;;26.10;20.30;;;;;;;;;;5034837;28;20518;-71
2022/06/24 01:12:59;;;;;;;32.13;21.02;;;;;;;;;;5028327;28;20559;-71
2022/06/24 01:15:25;;;;;;;50.10;26.25;;;;;;;;;;5030399;28;20041;-69
2022/06/24 01:17:52;;;;;;;56.78;32.28;;;;;;;;;;5027302;28;20102;-69
2022/06/24 01:20:18;;;;;;;46.30;29.90;;;;;;;;;;5022687;28;20022;-68
2022/06/24 01:22:45;;;;;;;46.22;31.67;;;;;;;;;;5031199;28;20487;-68
2022/06/24 01:25:11;;;;;;;52.08;35.92;;;;;;;;;;5027078;28;20071;-67
2022/06/24 01:27:38;;;;;;;46.28;28.52;;;;;;;;;;5022958;28;20038;-67
2022/06/24 01:30:04;;;;;;;45.75;28.40;;;;;;;;;;5022948;28;20036;-67
2022/06/24 01:32:30;;;;;;;41.13;27.88;;;;;;;;;;5029328;28;20037;-67
2022/06/24 01:34:56;;;;;;;44.75;29.30;;;;;;;;;;5027033;28;20502;-67
2022/06/24 01:37:23;;;;;;;48.72;26.15;;;;;;;;;;5042123;28;20070;-68
2022/06/24 01:39:50;;;;;;;48.75;22.00;;;;;;;;;;5029115;28;20030;-66
2022/06/24 01:42:16;;;;;;;37.92;13.90;;;;;;;;;;5036834;28;20030;-69
2022/06/24 01:44:43;;;;;;;27.85;12.15;;;;;;;;;;5023073;28;20032;-69
2022/06/24 01:47:09;;;;;;;31.30;8.18;;;;;;;;;;5032503;28;20463;-68
2022/06/24 01:49:35;;;;;;;15.00;6.63;;;;;;;;;;5034689;28;20049;-67
2022/06/24 01:52:01;;;;;;;13.25;6.85;;;;;;;;;;5041571;28;20036;-67
2022/06/24 01:54:27;;;;;;;15.25;7.80;;;;;;;;;;5037605;28;20251;-68
2022/06/24 01:56:54;;;;;;;18.38;9.50;;;;;;;;;;5029869;28;20036;-67
2022/06/24 01:59:20;;;;;;;25.85;9.60;;;;;;;;;;5034669;28;20164;-67
2022/06/24 02:01:46;;;;;;;22.83;11.90;;;;;;;;;;5032839;28;20549;-68
2022/06/24 02:04:13;;;;;;;29.73;13.25;;;;;;;;;;5034274;28;20102;-68
2022/06/24 02:06:39;;;;;;;26.95;15.60;;;;;;;;;;5031662;28;20609;-68
2022/06/24 02:09:05;;;;;;;24.60;14.80;;;;;;;;;;5032815;28;20087;-68
2022/06/24 02:14:16;;;;;;;30.92;16.85;;;;;;;;;;5038150;28;20048;-68
2022/06/24 02:16:43;;;;;;;29.70;18.45;;;;;;;;;;5030309;28;20113;-68
2022/06/24 02:19:09;;;;;;;29.27;18.83;;;;;;;;;;5034132;28;20018;-68
2022/06/24 02:21:35;;;;;;;25.98;17.75;;;;;;;;;;5028886;28;20037;-69
2022/06/24 02:24:01;;;;;;;18.70;13.93;;;;;;;;;;5028530;28;20387;-67
2022/06/24 02:26:27;;;;;;;23.55;14.32;;;;;;;;;;5029916;28;20046;-67
2022/06/24 02:28:54;;;;;;;25.90;15.95;;;;;;;;;;5036740;28;20052;-69
2022/06/24 02:31:20;;;;;;;22.73;17.10;;;;;;;;;;5039737;28;20032;-67
2022/06/24 02:33:49;;;;;;;31.17;19.27;;;;;;;;;;5041674;28;20033;-68
2022/06/24 02:36:15;;;;;;;33.10;23.10;;;;;;;;;;5035015;28;20029;-68
2022/06/24 02:38:41;;;;;;;38.90;25.30;;;;;;;;;;5035286;28;20025;-68
2022/06/24 02:41:07;;;;;;;39.38;25.70;;;;;;;;;;5037803;28;20105;-68
2022/06/24 02:43:35;;;;;;;42.83;26.27;;;;;;;;;;5038672;28;20691;-68
2022/06/24 02:46:04;;;;;;;45.10;27.73;;;;;;;;;;5034331;28;20312;-67
2022/06/24 02:48:31;;;;;;;27.50;17.83;;;;;;;;;;5039793;28;20480;-69
2022/06/24 02:50:58;;;;;;;25.02;15.65;;;;;;;;;;5033542;28;20593;-68
2022/06/24 02:53:25;;;;;;;17.67;10.68;;;;;;;;;;5033580;28;20475;-68
2022/06/24 02:55:52;;;;;;;15.77;9.05;;;;;;;;;;5033695;28;20030;-68
2022/06/24 02:58:18;;;;;;;13.48;8.95;;;;;;;;;;5036717;28;20025;-68
2022/06/24 03:00:44;;;;;;;16.25;9.18;;;;;;;;;;5033140;28;20050;-67
2022/06/24 03:03:11;;;;;;;13.55;8.45;;;;;;;;;;5032962;28;20040;-69
2022/06/24 03:05:38;;;;;;;14.15;8.60;;;;;;;;;;5030652;28;20036;-68
2022/06/24 03:08:04;;;;;;;14.25;8.15;;;;;;;;;;5038026;28;20029;-68
2022/06/24 03:10:30;;;;;;;14.10;7.72;;;;;;;;;;5035141;28;20455;-68
2022/06/24 03:12:56;;;;;;;14.20;7.80;;;;;;;;;;5037714;28;20060;-68
2022/06/24 03:15:22;;;;;;;13.45;7.70;;;;;;;;;;5032334;28;20557;-68
2022/06/24 03:17:48;;;;;;;13.73;7.88;;;;;;;;;;5028630;28;20074;-68
2022/06/24 03:20:14;;;;;;;12.90;9.05;;;;;;;;;;5031397;28;20786;-68
2022/06/24 03:22:41;;;;;;;16.88;7.93;;;;;;;;;;5039225;28;20098;-68
2022/06/24 03:25:07;;;;;;;15.45;8.73;;;;;;;;;;5030316;28;20038;-68
2022/06/24 03:27:34;;;;;;;18.77;9.20;;;;;;;;;;5034571;28;20101;-68
2022/06/24 03:30:00;;;;;;;14.57;9.35;;;;;;;;;;5032044;28;20026;-68
2022/06/24 03:32:26;;;;;;;12.10;8.35;;;;;;;;;;5036773;28;20025;-68
2022/06/24 03:34:52;;;;;;;15.90;8.48;;;;;;;;;;5033147;28;20029;-68
2022/06/24 03:37:18;;;;;;;16.38;8.30;;;;;;;;;;5033994;28;20033;-68
2022/06/24 03:39:44;;;;;;;14.52;8.43;;;;;;;;;;5040397;28;20044;-67
2022/06/24 03:42:10;;;;;;;13.93;8.27;;;;;;;;;;5029519;28;20021;-68
2022/06/24 03:44:36;;;;;;;14.68;8.57;;;;;;;;;;5032978;28;20489;-67
2022/06/24 03:47:02;;;;;;;14.90;9.15;;;;;;;;;;5027487;28;20128;-67
2022/06/24 03:49:29;;;;;;;16.08;9.35;;;;;;;;;;5036361;28;20039;-66
2022/06/24 03:51:55;;;;;;;16.48;9.95;;;;;;;;;;5032157;28;20510;-68
2022/06/24 03:54:22;;;;;;;21.83;11.88;;;;;;;;;;5034287;28;20505;-66
2022/06/24 03:56:48;;;;;;;19.00;10.75;;;;;;;;;;5030356;28;20041;-67
2022/06/24 03:59:14;;;;;;;23.05;11.35;;;;;;;;;;5034723;28;20033;-67
2022/06/24 04:01:40;;;;;;;15.38;10.13;;;;;;;;;;5026054;28;20038;-67
2022/06/24 04:04:06;;;;;;;18.77;10.88;;;;;;;;;;5028496;28;20052;-68
2022/06/24 04:06:32;;;;;;;20.52;10.82;;;;;;;;;;5025759;28;20479;-68
2022/06/24 04:08:58;;;;;;;15.88;11.57;;;;;;;;;;5036036;28;20090;-68
2022/06/24 04:11:24;;;;;;;16.90;11.13;;;;;;;;;;5031410;28;20531;-69
2022/06/24 04:13:50;;;;;;;20.88;10.60;;;;;;;;;;5035852;28;20037;-66
2022/06/24 04:16:16;;;;;;;15.85;10.55;;;;;;;;;;5028772;28;20025;-68
2022/06/24 04:18:42;;;;;;;18.25;10.85;;;;;;;;;;5036693;28;20037;-68
2022/06/24 04:21:13;;;;;;;13.68;9.88;;;;;;;;;;5032342;28;20028;-68
2022/06/24 04:23:39;;;;;;;14.50;11.38;;;;;;;;;;5035123;28;20502;-67
2022/06/24 04:26:05;;;;;;;16.77;11.15;;;;;;;;;;5025729;28;20271;-68
2022/06/24 04:28:31;;;;;;;18.05;11.77;;;;;;;;;;5035392;28;21150;-67
2022/06/24 04:30:57;;;;;;;20.25;10.88;;;;;;;;;;5030819;28;20060;-67
2022/06/24 04:33:23;;;;;;;17.65;11.32;;;;;;;;;;5032818;28;20068;-67
2022/06/24 04:35:49;;;;;;;19.60;12.15;;;;;;;;;;5028612;28;20033;-68
2022/06/24 04:38:15;;;;;;;20.13;12.65;;;;;;;;;;5033151;28;20512;-68
2022/06/24 04:40:41;;;;;;;20.67;13.32;;;;;;;;;;5032184;28;20521;-67
2022/06/24 04:43:08;;;;;;;19.52;12.43;;;;;;;;;;5035795;28;20056;-67
2022/06/24 04:45:34;;;;;;;18.45;14.65;;;;;;;;;;5030891;28;20025;-69
2022/06/24 04:48:00;;;;;;;20.92;13.90;;;;;;;;;;5033821;28;20040;-66
2022/06/24 04:50:26;;;;;;;20.75;13.77;;;;;;;;;;5029396;28;20077;-69
2022/06/24 04:52:52;;;;;;;24.38;14.75;;;;;;;;;;5030172;28;20036;-68
2022/06/24 04:55:19;;;;;;;22.77;16.17;;;;;;;;;;5023909;28;20107;-67
2022/06/24 04:57:45;;;;;;;23.13;16.95;;;;;;;;;;5038310;28;20122;-68
2022/06/24 05:00:11;;;;;;;20.52;15.93;;;;;;;;;;5026573;28;20116;-67
2022/06/24 05:02:37;;;;;;;30.25;18.00;;;;;;;;;;5030120;28;20025;-72
2022/06/24 05:05:05;;;;;;;26.30;18.08;;;;;;;;;;5028635;28;20056;-71
2022/06/24 05:07:31;;;;;;;27.60;19.42;;;;;;;;;;5032017;28;20087;-72
2022/06/24 05:09:58;;;;;;;29.42;19.75;;;;;;;;;;5025626;28;20715;-72
2022/06/24 05:12:24;;;;;;;30.50;18.70;;;;;;;;;;5030667;28;20119;-73
2022/06/24 05:14:50;;;;;;;27.98;20.60;;;;;;;;;;5032599;28;20041;-72
2022/06/24 05:17:16;;;;;;;30.75;20.30;;;;;;;;;;5034546;28;20095;-72
2022/06/24 05:19:42;;;;;;;26.42;18.50;;;;;;;;;;5028415;28;20204;-72
2022/06/24 05:22:09;;;;;;;22.02;17.50;;;;;;;;;;5038786;28;20040;-72
2022/06/24 05:24:35;;;;;;;24.60;17.48;;;;;;;;;;5035423;28;20025;-72
2022/06/24 05:27:01;;;;;;;21.65;15.85;;;;;;;;;;5028516;28;20504;-72
2022/06/24 05:29:27;;;;;;;25.25;16.15;;;;;;;;;;5033753;28;20507;-71
2022/06/24 05:31:53;;;;;;;22.55;16.05;;;;;;;;;;5014829;28;20069;-72
2022/06/24 05:34:19;;;;;;;19.98;14.75;;;;;;;;;;5034503;28;20484;-73
2022/06/24 05:36:45;;;;;;;21.55;14.88;;;;;;;;;;5012994;28;20194;-72
2022/06/24 05:39:12;;;;;;;26.75;17.17;;;;;;;;;;5033031;28;20029;-71
2022/06/24 05:41:39;;;;;;;22.02;16.40;;;;;;;;;;5031610;28;20104;-71
2022/06/24 05:44:05;;;;;;;22.35;16.38;;;;;;;;;;5028627;28;20106;-72
2022/06/24 05:46:31;;;;;;;23.05;16.17;;;;;;;;;;5024842;28;20138;-72
2022/06/24 05:48:57;;;;;;;26.60;16.40;;;;;;;;;;5024001;28;20068;-73
2022/06/24 05:51:24;;;;;;;23.63;17.00;;;;;;;;;;5032243;28;20030;-72
2022/06/24 05:56:35;;;;;;;25.73;17.70;;;;;;;;;;5030707;28;20513;-72
2022/06/24 05:59:01;;;;;;;25.85;16.73;;;;;;;;;;5031101;28;20029;-72
2022/06/24 06:01:27;;;;;;;23.65;17.17;;;;;;;;;;5027816;28;20129;-74
2022/06/24 06:03:53;;;;;;;28.58;20.25;;;;;;;;;;5032427;28;20048;-71
2022/06/24 06:06:19;;;;;;;24.88;16.70;;;;;;;;;;5040007;28;20033;-73
2022/06/24 06:08:46;;;;;;;28.20;17.75;;;;;;;;;;5026918;28;20044;-73
2022/06/24 06:11:13;;;;;;;30.60;18.30;;;;;;;;;;5027668;28;20022;-72
2022/06/24 06:13:40;;;;;;;21.63;16.85;;;;;;;;;;5036410;28;20033;-72
2022/06/24 06:16:06;;;;;;;26.08;18.55;;;;;;;;;;5036162;28;20030;-73
2022/06/24 06:18:32;;;;;;;30.02;18.83;;;;;;;;;;5032938;28;20029;-73
2022/06/24 06:21:02;;;;;;;28.00;19.90;;;;;;;;;;5028058;28;20122;-71
2022/06/24 06:23:29;;;;;;;28.08;20.70;;;;;;;;;;5036084;28;20029;-73
2022/06/24 06:25:56;;;;;;;29.40;21.88;;;;;;;;;;5032038;28;20044;-73
2022/06/24 06:28:22;;;;;;;31.33;21.10;;;;;;;;;;5017047;28;20029;-71
2022/06/24 06:30:48;;;;;;;25.73;19.73;;;;;;;;;;5027472;28;20479;-73
2022/06/24 06:33:14;;;;;;;25.80;20.55;;;;;;;;;;5031029;28;20065;-73
2022/06/24 06:35:40;;;;;;;31.90;22.98;;;;;;;;;;5033785;28;20123;-73
2022/06/24 06:38:06;;;;;;;32.92;21.58;;;;;;;;;;5031203;28;20491;-73
2022/06/24 06:40:36;;;;;;;35.03;24.52;;;;;;;;;;5027932;28;20034;-73
2022/06/24 06:43:02;;;;;;;31.30;22.75;;;;;;;;;;5026837;28;20028;-73
2022/06/24 06:45:31;;;;;;;32.20;22.70;;;;;;;;;;5024739;28;20034;-74
2022/06/24 06:47:57;;;;;;;32.05;22.77;;;;;;;;;;5021375;28;21717;-73
2022/06/24 06:50:24;;;;;;;27.92;22.13;;;;;;;;;;5029308;28;20029;-75
2022/06/24 06:52:50;;;;;;;30.60;23.13;;;;;;;;;;5026053;28;20041;-74
2022/06/24 06:55:16;;;;;;;31.50;23.80;;;;;;;;;;5031301;28;20129;-75
2022/06/24 06:57:42;;;;;;;28.40;21.98;;;;;;;;;;5036907;28;20091;-74
2022/06/24 07:00:12;;;;;;;24.77;20.20;;;;;;;;;;5028144;28;20092;-74
2022/06/24 07:02:38;;;;;;;27.25;18.77;;;;;;;;;;5031643;28;20483;-74
2022/06/24 07:05:04;;;;;;;21.33;16.20;;;;;;;;;;5026119;28;20828;-71
2022/06/24 07:07:30;;;;;;;22.02;15.40;;;;;;;;;;5029746;28;20033;-72
2022/06/24 07:09:57;;;;;;;17.13;13.35;;;;;;;;;;5030678;28;20032;-73
2022/06/24 07:12:23;;;;;;;17.25;14.13;;;;;;;;;;5030723;28;20033;-72
2022/06/24 07:14:49;;;;;;;17.63;12.95;;;;;;;;;;5029865;28;20080;-71
2022/06/24 07:17:15;;;;;;;17.17;12.90;;;;;;;;;;5028366;28;20029;-73
2022/06/24 07:19:42;;;;;;;19.65;13.60;;;;;;;;;;5026455;28;20557;-72
2022/06/24 07:22:08;;;;;;;20.90;14.95;;;;;;;;;;5031156;28;20033;-73
2022/06/24 07:24:34;;;;;;;19.38;15.75;;;;;;;;;;5030815;28;20624;-73
2022/06/24 07:27:08;;;;;;;25.05;16.73;;;;;;;;;;5031604;28;20061;-73
2022/06/24 07:29:34;;;;;;;18.17;14.80;;;;;;;;;;5028966;28;20568;-73
2022/06/24 07:32:00;;;;;;;21.80;15.27;;;;;;;;;;5026787;28;20494;-73
2022/06/24 07:34:27;;;;;;;20.10;14.88;;;;;;;;;;5032413;28;20087;-73
2022/06/24 07:36:53;;;;;;;20.50;17.10;;;;;;;;;;5031266;28;20024;-73
2022/06/24 07:39:19;;;;;;;22.08;17.42;;;;;;;;;;5035643;28;20017;-74
2022/06/24 07:41:45;;;;;;;21.85;17.33;;;;;;;;;;5032541;28;20060;-74
2022/06/24 07:44:11;;;;;;;24.33;17.08;;;;;;;;;;5028711;28;20100;-72
2022/06/24 07:46:37;;;;;;;23.88;18.20;;;;;;;;;;5028499;28;20131;-74
2022/06/24 07:49:03;;;;;;;23.77;19.13;;;;;;;;;;5038203;28;20517;-73
2022/06/24 07:51:30;;;;;;;23.58;19.42;;;;;;;;;;5027284;28;20455;-74
2022/06/24 07:53:56;;;;;;;21.27;18.15;;;;;;;;;;5047966;28;20040;-74
2022/06/24 07:57:04;;;;;;;26.95;18.75;;;;;;;;;;5012573;28;20025;-72
2022/06/24 07:59:11;;;;;;;26.55;17.60;;;;;;;;;;5020908;28;20511;-72
2022/06/24 08:01:37;;;;;;;21.40;18.25;;;;;;;;;;5033276;28;20560;-74
2022/06/24 08:04:09;;;;;;;24.60;19.38;;;;;;;;;;5032450;28;20502;-74
2022/06/24 08:06:38;;;;;;;20.75;17.98;;;;;;;;;;5027386;28;20037;-72
2022/06/24 08:09:04;;;;;;;25.48;19.65;;;;;;;;;;5041505;28;20383;-73
2022/06/24 08:11:30;;;;;;;25.50;20.13;;;;;;;;;;5032077;28;20030;-73
2022/06/24 08:13:56;;;;;;;27.65;21.30;;;;;;;;;;5033939;28;20219;-73
2022/06/24 08:16:22;;;;;;;26.92;22.20;;;;;;;;;;5035308;28;20033;-74
2022/06/24 08:18:49;;;;;;;28.00;24.27;;;;;;;;;;5035739;28;20502;-74
2022/06/24 08:21:15;;;;;;;29.45;23.90;;;;;;;;;;5032128;28;20117;-72
2022/06/24 08:23:41;;;;;;;36.45;26.70;;;;;;;;;;5029236;28;20057;-73
2022/06/24 08:26:07;;;;;;;32.30;25.23;;;;;;;;;;5032967;28;20033;-74
2022/06/24 08:28:34;;;;;;;27.50;22.73;;;;;;;;;;5028661;28;20102;-73
2022/06/24 08:31:01;;;;;;;33.13;24.83;;;;;;;;;;5030884;28;20032;-73
2022/06/24 08:33:27;;;;;;;28.77;23.75;;;;;;;;;;5028124;28;20068;-73
2022/06/24 08:35:53;;;;;;;29.27;23.25;;;;;;;;;;5026351;28;20053;-74
2022/06/24 08:38:19;;;;;;;26.90;21.45;;;;;;;;;;5029579;28;20513;-74
2022/06/24 08:40:49;;;;;;;24.73;20.30;;;;;;;;;;5033866;28;20017;-74
2022/06/24 08:43:15;;;;;;;27.05;20.95;;;;;;;;;;5039534;28;20017;-73
2022/06/24 08:45:41;;;;;;;36.75;23.98;;;;;;;;;;5027657;28;21849;-74
2022/06/24 08:48:08;;;;;;;29.70;22.85;;;;;;;;;;5029254;28;20085;-73
2022/06/24 08:50:34;;;;;;;28.02;23.27;;;;;;;;;;5034845;28;20498;-72
2022/06/24 08:53:03;;;;;;;30.90;26.55;;;;;;;;;;5024888;28;20025;-73
2022/06/24 08:55:30;;;;;;;32.35;26.20;;;;;;;;;;5030357;28;20049;-73
2022/06/24 08:57:56;;;;;;;23.73;21.15;;;;;;;;;;5029209;28;20025;-75
2022/06/24 09:00:22;;;;;;;25.67;20.80;;;;;;;;;;5024792;28;20082;-74
2022/06/24 09:02:48;;;;;;;25.73;19.90;;;;;;;;;;5034176;28;20041;-73
2022/06/24 09:05:15;;;;;;;19.58;17.40;;;;;;;;;;5026634;28;20070;-74
2022/06/24 09:07:41;;;;;;;19.08;14.57;;;;;;;;;;5027613;28;20565;-74
2022/06/24 09:10:12;;;;;;;17.55;14.80;;;;;;;;;;5030527;28;20034;-74
2022/06/24 09:12:38;;;;;;;;;;;;;;;;;;5034679;28;20040;-74
2022/06/24 09:15:05;;;;;;;20.58;17.63;;;;;;;;;;5027735;28;19917;-72
2022/06/24 09:17:32;;;;;;;20.98;17.27;;;;;;;;;;5028796;28;20036;-73
2022/06/24 09:20:19;;;;;;;21.33;16.70;;;;;;;;;;5042246;28;20041;-74
2022/06/24 09:22:46;;;;;;;21.25;17.92;;;;;;;;;;5031125;28;20029;-74
2022/06/24 09:25:12;;;;;;;20.67;16.13;;;;;;;;;;5028854;28;20791;-74
2022/06/24 09:27:46;;;;;;;20.88;15.38;;;;;;;;;;5030302;28;20502;-73
2022/06/24 09:30:13;;;;;;;17.40;15.30;;;;;;;;;;5033519;28;20056;-73
2022/06/24 09:32:52;;;;;;;17.70;14.02;;;;;;;;;;5052628;28;20112;-75
2022/06/24 09:35:18;;;;;;;19.13;15.23;;;;;;;;;;5033624;28;20040;-74
2022/06/24 09:37:46;;;;;;;20.33;14.85;;;;;;;;;;5030558;28;20025;-71
2022/06/24 09:40:18;;;;;;;19.60;14.27;;;;;;;;;;5026780;28;20034;-74
2022/06/24 09:42:51;;;;;;;30.13;15.35;;;;;;;;;;5026492;28;20024;-72
2022/06/24 09:45:17;;;;;;;17.15;13.80;;;;;;;;;;5033447;28;20583;-74
2022/06/24 09:47:47;;;;;;;22.13;14.55;;;;;;;;;;5027238;28;20511;-74
2022/06/24 09:50:13;;;;;;;17.92;14.23;;;;;;;;;;5029926;28;20030;-74
2022/06/24 09:52:39;;;;;;;18.33;14.52;;;;;;;;;;5029688;28;20554;-73
2022/06/24 09:55:06;;;;;;;17.85;13.23;;;;;;;;;;5028987;28;20061;-73
2022/06/24 09:57:32;;;;;;;16.60;14.27;;;;;;;;;;5031334;28;20044;-74
2022/06/24 10:02:44;;;;;;;17.65;13.50;;;;;;;;;;5021151;28;20510;-74
2022/06/24 10:05:10;;;;;;;17.65;14.32;;;;;;;;;;5028704;28;20034;-74
2022/06/24 10:07:37;;;;;;;18.98;13.38;;;;;;;;;;5029125;28;20025;-74
2022/06/24 10:10:06;;;;;;;15.45;12.88;;;;;;;;;;5031204;28;20503;-75
2022/06/24 10:12:34;;;;;;;17.52;13.82;;;;;;;;;;5033429;28;20037;-73
2022/06/24 10:15:00;;;;;;;18.42;13.80;;;;;;;;;;5032696;28;21672;-75
2022/06/24 10:17:28;;;;;;;17.98;12.70;;;;;;;;;;5032271;28;20105;-73
2022/06/24 10:19:54;;;;;;;16.83;13.25;;;;;;;;;;5031125;28;20029;-75
2022/06/24 10:22:36;;;;;;;17.50;13.10;;;;;;;;;;5030176;28;20478;-75
2022/06/24 10:25:02;;;;;;;17.60;14.38;;;;;;;;;;5029145;28;20067;-74
2022/06/24 10:27:47;;;;;;;17.13;14.43;;;;;;;;;;5033138;28;20037;-74
2022/06/24 10:30:33;;;;;;;15.65;13.60;;;;;;;;;;5029459;28;20038;-73
2022/06/24 10:33:16;;;;;;;15.55;13.80;;;;;;;;;;5030222;28;20112;-73
2022/06/24 10:36:00;;;;;;;17.67;14.15;;;;;;;;;;5030923;28;20047;-74
2022/06/24 10:38:33;;;;;;;18.85;16.73;;;;;;;;;;5035333;28;20029;-75
2022/06/24 10:41:00;;;;;;;18.45;16.23;;;;;;;;;;5032685;28;20291;-72
2022/06/24 10:43:36;;;;;;;17.33;15.52;;;;;;;;;;5033931;28;20020;-75
2022/06/24 10:46:11;;;;;;;19.13;16.27;;;;;;;;;;5030619;28;20087;-74
2022/06/24 10:48:43;;;;;;;19.63;17.52;;;;;;;;;;5030993;28;20506;-74
2022/06/24 10:51:17;;;;;;;17.83;15.95;;;;;;;;;;5035350;28;20055;-74
2022/06/24 10:54:01;;;;;;;22.83;17.23;;;;;;;;;;5037709;28;20030;-73
2022/06/24 10:56:44;;;;;;;18.50;16.30;;;;;;;;;;5036869;28;20463;-73
2022/06/24 10:59:10;;;;;;;18.27;16.35;;;;;;;;;;5038204;28;20143;-74
2022/06/24 11:01:40;;;;;;;16.52;14.02;;;;;;;;;;5033849;28;20529;-75
2022/06/24 11:04:08;;;;;;;15.52;13.52;;;;;;;;;;5037693;28;20021;-74
2022/06/24 11:06:37;;;;;;;14.57;13.13;;;;;;;;;;5037620;28;20037;-73
2022/06/24 11:09:06;;;;;;;15.02;13.40;;;;;;;;;;5035931;28;20030;-74
2022/06/24 11:11:33;;;;;;;13.43;11.65;;;;;;;;;;5035904;28;20048;-73
2022/06/24 11:13:59;;;;;;;18.67;12.25;;;;;;;;;;5033713;28;20032;-71
2022/06/24 11:16:28;;;;;;;14.88;13.05;;;;;;;;;;5036021;28;20381;-73
2022/06/24 11:18:54;;;;;;;19.33;16.67;;;;;;;;;;5038407;28;20060;-74
2022/06/24 11:21:20;;;;;;;19.45;17.00;;;;;;;;;;5038100;28;20044;-75
2022/06/24 11:23:48;;;;;;;19.27;16.27;;;;;;;;;;5037973;28;20063;-75
2022/06/24 11:26:26;;;;;;;20.55;18.48;;;;;;;;;;5036055;28;20029;-74
2022/06/24 11:28:52;;;;;;;24.25;18.77;;;;;;;;;;5034270;28;20090;-75
2022/06/24 11:31:29;;;;;;;20.20;18.27;;;;;;;;;;5034023;28;20095;-74
2022/06/24 11:34:04;;;;;;;18.75;16.58;;;;;;;;;;5027927;28;20053;-74
2022/06/24 11:36:31;;;;;;;20.27;18.10;;;;;;;;;;5045713;28;20041;-74
2022/06/24 11:38:58;;;;;;;21.38;18.80;;;;;;;;;;5035914;28;20033;-75
2022/06/24 11:41:24;;;;;;;23.52;20.42;;;;;;;;;;5036227;28;20089;-75
2022/06/24 11:43:51;;;;;;;22.67;20.27;;;;;;;;;;5063021;28;20278;-74
2022/06/24 11:46:17;;;;;;;23.65;20.83;;;;;;;;;;5028511;28;20563;-75
2022/06/24 11:48:43;;;;;;;25.35;22.67;;;;;;;;;;5035036;28;20060;-72
2022/06/24 11:51:22;;;;;;;30.45;23.15;;;;;;;;;;5034306;28;20203;-72
2022/06/24 11:53:59;;;;;;;29.42;23.42;;;;;;;;;;5031414;28;20708;-73
2022/06/24 11:56:29;;;;;;;26.38;23.48;;;;;;;;;;5033159;28;20048;-72
2022/06/24 11:58:56;;;;;;;28.33;25.42;;;;;;;;;;5013863;28;20037;-73
2022/06/24 12:01:23;;;;;;;32.85;25.55;;;;;;;;;;5024356;28;20187;-73
2022/06/24 12:03:50;;;;;;;28.80;24.65;;;;;;;;;;5029612;28;20360;-72
2022/06/24 12:06:17;;;;;;;28.73;24.55;;;;;;;;;;5030070;28;20068;-75
2022/06/24 12:08:43;;;;;;;33.33;25.38;;;;;;;;;;5021435;28;20022;-69
2022/06/24 12:11:14;;;;;;;30.20;23.38;;;;;;;;;;5027645;28;20030;-68
2022/06/24 12:13:40;;;;;;;;;;;;;;;;;;5023806;28;20064;-68
2022/06/24 12:16:06;;;;;;;34.10;24.60;;;;;;;;;;5018945;28;19955;-68
2022/06/24 12:18:33;;;;;;;26.88;22.30;;;;;;;;;;5025423;28;20116;-68
2022/06/24 12:21:06;;;;;;;27.23;22.65;;;;;;;;;;5025211;28;20116;-68
2022/06/24 12:23:32;;;;;;;27.45;21.65;;;;;;;;;;5025325;28;20107;-68
2022/06/24 12:25:59;;;;;;;29.27;21.77;;;;;;;;;;5023162;28;20037;-68
2022/06/24 12:28:26;;;;;;;23.73;19.60;;;;;;;;;;5028912;28;20559;-69
2022/06/24 12:30:56;;;;;;;24.10;20.23;;;;;;;;;;5025005;28;20048;-68
2022/06/24 12:33:22;;;;;;;23.38;19.27;;;;;;;;;;5027838;28;20467;-68
2022/06/24 12:35:50;;;;;;;24.17;17.70;;;;;;;;;;5023058;28;20431;-68
2022/06/24 12:38:16;;;;;;;22.88;18.45;;;;;;;;;;5022010;28;20128;-69
2022/06/24 12:40:42;;;;;;;23.42;18.77;;;;;;;;;;5024259;28;20128;-70
2022/06/24 12:43:11;;;;;;;28.75;21.17;;;;;;;;;;5029266;28;20574;-69
2022/06/24 12:45:38;;;;;;;26.75;21.33;;;;;;;;;;5024670;28;20044;-69
2022/06/24 12:50:59;;;;;;;28.70;21.90;;;;;;;;;;5018124;28;20040;-69
2022/06/24 12:53:25;;;;;;;30.48;22.42;;;;;;;;;;5032729;28;20120;-69
2022/06/24 12:55:52;;;;;;;25.80;21.67;;;;;;;;;;5031709;28;20663;-68
2022/06/24 12:58:18;;;;;;;24.60;20.92;;;;;;;;;;5027897;28;20037;-68
2022/06/24 13:00:45;;;;;;;22.67;19.00;;;;;;;;;;5030299;28;20073;-68
2022/06/24 13:03:11;;;;;;;23.65;18.45;;;;;;;;;;5028756;28;20017;-68
2022/06/24 13:05:37;;;;;;;21.58;18.95;;;;;;;;;;5032709;28;20122;-68
2022/06/24 13:08:06;;;;;;;24.65;20.65;;;;;;;;;;5026995;28;20112;-67
2022/06/24 13:10:32;;;;;;;26.85;21.08;;;;;;;;;;5030530;28;20041;-68
2022/06/24 13:12:59;;;;;;;24.90;21.30;;;;;;;;;;5031860;28;20064;-68
2022/06/24 13:15:25;;;;;;;26.88;21.23;;;;;;;;;;5024240;28;20026;-69
2022/06/24 13:17:51;;;;;;;26.23;21.55;;;;;;;;;;5031870;28;20037;-67
2022/06/24 13:20:17;;;;;;;22.50;20.10;;;;;;;;;;5026324;28;20037;-69
2022/06/24 13:22:43;;;;;;;24.83;20.60;;;;;;;;;;5032149;28;20021;-68
2022/06/24 13:25:09;;;;;;;26.08;21.65;;;;;;;;;;5028769;28;20025;-69
2022/06/24 13:27:36;;;;;;;25.40;21.70;;;;;;;;;;5029705;28;20059;-68
2022/06/24 13:30:03;;;;;;;25.00;22.35;;;;;;;;;;5033351;28;20032;-69
2022/06/24 13:32:29;;;;;;;24.80;21.85;;;;;;;;;;5030742;28;20034;-68
2022/06/24 13:34:56;;;;;;;24.13;21.63;;;;;;;;;;5022797;28;20042;-67
2022/06/24 13:37:22;;;;;;;24.67;21.63;;;;;;;;;;5026346;28;20625;-70
2022/06/24 13:39:48;;;;;;;24.67;22.10;;;;;;;;;;5030053;28;20074;-71
2022/06/24 13:42:14;;;;;;;25.60;21.40;;;;;;;;;;5031929;28;20032;-72
2022/06/24 13:44:40;;;;;;;26.08;21.90;;;;;;;;;;5049119;28;20493;-71
2022/06/24 13:47:06;;;;;;;25.73;22.95;;;;;;;;;;5034615;28;20026;-71
2022/06/24 13:49:32;;;;;;;25.15;21.95;;;;;;;;;;5031293;28;20150;-70
2022/06/24 13:51:58;;;;;;;27.70;24.02;;;;;;;;;;5034183;28;20061;-71
2022/06/24 13:54:24;;;;;;;30.13;23.25;;;;;;;;;;5033379;28;20432;-70
2022/06/24 13:56:50;;;;;;;24.90;21.73;;;;;;;;;;5034063;28;20116;-70
2022/06/24 13:59:16;;;;;;;21.55;16.13;;;;;;;;;;5033753;28;20026;-71
2022/06/24 14:01:44;;;;;;;26.17;17.90;;;;;;;;;;5031740;28;20119;-71
2022/06/24 14:04:10;;;;;;;23.42;17.38;;;;;;;;;;5032930;28;20446;-71
2022/06/24 14:06:37;;;;;;;22.38;18.42;;;;;;;;;;5033817;28;20025;-71
2022/06/24 14:09:04;;;;;;;25.92;19.73;;;;;;;;;;5035280;28;20025;-71
2022/06/24 14:11:30;;;;;;;24.65;17.30;;;;;;;;;;5034471;28;20025;-70
2022/06/24 14:13:56;;;;;;;20.65;15.05;;;;;;;;;;5032519;28;20022;-71
2022/06/24 14:16:22;;;;;;;19.10;14.93;;;;;;;;;;5034692;28;20479;-70
2022/06/24 14:18:48;;;;;;;22.60;14.73;;;;;;;;;;5032036;28;20112;-71
2022/06/24 14:21:14;;;;;;;23.90;11.98;;;;;;;;;;5032367;28;20037;-71
2022/06/24 14:26:25;;;;;;;23.23;12.48;;;;;;;;;;5035339;28;20391;-70
2022/06/24 14:28:51;;;;;;;21.25;12.70;;;;;;;;;;5032108;28;20137;-68
2022/06/24 14:31:20;;;;;;;18.98;12.82;;;;;;;;;;5033459;28;20120;-69
2022/06/24 14:33:46;;;;;;;22.33;13.45;;;;;;;;;;5033944;28;20029;-69